Terminal Aerodrome Forecast
Issued by NWS Twin Cities, MN

Home | Current Version | Previous Version | Graphics & Text | Print | Product List | Glossary On
Versions: 1 2 3 4 5 6 7 8 9 10 11 12 13 14 15 16 17 18 19 20 21 22 23 24 25 26 27 28
000
FTUS43 KMPX 011100 RRA
TAFMSP
TAF
KMSP 011146Z 0112/0218 14012KT P6SM -SHRA BKN020 OVC070
     FM011500 14009KT 6SM -SHRA BR SCT008 OVC015
     FM012200 15007KT P6SM VCSH SCT015 OVC022
     FM020200 20005KT P6SM SCT015 BKN070
     FM020700 VRB03KT 4SM BR BKN007
     FM021500 33003KT P6SM OVC009=

USA.gov is the U.S. government's official web portal to all federal, state and local government web resources and services.